Time;durP1;ratioP1;P1;durP2;ratioP2;P2;SDS_P1;SDS_P2;PMS_P1;PMS_P2;Temp;Humidity;BMP_temperature;BMP_pressure;BME280_temperature;BME280_humidity;BME280_pressure;Samples;Min_cycle;Max_cycle;Signal;HPM_P1;HPM_P2
2022/06/14 00:03:10;;;;;;;0.90;0.47;;;14.40;54.40;;;;;;5028007;28;20659;-81
2022/06/14 00:05:36;;;;;;;1.98;0.63;;;14.30;54.30;;;;;;5051287;28;20039;-81
2022/06/14 00:08:02;;;;;;;0.70;0.50;;;14.30;54.40;;;;;;5033901;28;20470;-81
2022/06/14 00:10:28;;;;;;;1.98;0.70;;;14.30;54.50;;;;;;5046066;28;20040;-82
2022/06/14 00:12:54;;;;;;;1.43;0.60;;;14.20;54.50;;;;;;5017966;28;20051;-82
2022/06/14 00:15:20;;;;;;;2.45;0.90;;;14.20;54.80;;;;;;5038014;28;20696;-82
2022/06/14 00:17:46;;;;;;;1.13;0.65;;;14.20;54.80;;;;;;5040412;28;20033;-81
2022/06/14 00:20:11;;;;;;;2.33;0.70;;;14.10;54.70;;;;;;5036462;28;20467;-81
2022/06/14 00:22:37;;;;;;;0.98;0.60;;;14.10;55.20;;;;;;5046759;28;20029;-82
2022/06/14 00:25:04;;;;;;;1.30;0.70;;;14.00;55.20;;;;;;5042909;28;20384;-81
2022/06/14 00:27:30;;;;;;;1.00;0.63;;;14.00;55.20;;;;;;5047336;28;20113;-82
2022/06/14 00:29:55;;;;;;;2.65;0.70;;;13.90;55.20;;;;;;5019603;28;20045;-81
2022/06/14 00:32:21;;;;;;;0.50;0.50;;;13.90;55.50;;;;;;5042262;28;20400;-81
2022/06/14 00:34:46;;;;;;;0.80;0.60;;;13.80;55.40;;;;;;5047366;28;20119;-79
2022/06/14 00:37:20;;;;;;;0.50;0.45;;;13.80;55.60;;;;;;5044414;28;20029;-79
2022/06/14 00:39:46;;;;;;;0.80;0.50;;;13.80;56.00;;;;;;5037525;28;20032;-79
2022/06/14 00:42:18;;;;;;;1.37;0.77;;;13.80;55.80;;;;;;5039113;28;20302;-79
2022/06/14 00:45:12;;;;;;;1.42;0.60;;;13.70;56.40;;;;;;5020731;28;20033;-79
2022/06/14 00:47:51;;;;;;;3.08;0.80;;;13.70;57.60;;;;;;5051553;28;20051;-79
2022/06/14 00:50:23;;;;;;;1.08;0.55;;;13.60;56.50;;;;;;5035298;28;20257;-79
2022/06/14 00:52:54;;;;;;;1.73;0.60;;;13.60;56.50;;;;;;5044927;28;20029;-79
2022/06/14 00:55:29;;;;;;;1.75;0.68;;;13.50;56.40;;;;;;5035257;28;20246;-79
2022/06/14 00:58:09;;;;;;;1.13;0.70;;;13.50;56.40;;;;;;5044159;28;20040;-79
2022/06/14 01:00:40;;;;;;;0.65;0.60;;;13.40;56.70;;;;;;5022501;28;20112;-84
2022/06/14 01:03:13;;;;;;;1.20;0.60;;;13.40;56.80;;;;;;5038283;28;20134;-84
2022/06/14 01:06:06;;;;;;;0.87;0.60;;;13.30;56.80;;;;;;5047662;28;20071;-84
2022/06/14 01:08:45;;;;;;;1.23;0.60;;;13.30;57.00;;;;;;5049852;28;20028;-84
2022/06/14 01:11:17;;;;;;;0.77;0.60;;;13.20;58.00;;;;;;5038324;28;20238;-84
2022/06/14 01:13:43;;;;;;;1.42;0.60;;;13.20;57.30;;;;;;5055873;28;20093;-84
2022/06/14 01:16:10;;;;;;;0.75;0.55;;;13.10;56.80;;;;;;5024752;28;20040;-84
2022/06/14 01:18:38;;;;;;;0.77;0.60;;;13.10;57.10;;;;;;5042300;28;20143;-84
2022/06/14 01:21:04;;;;;;;0.95;0.70;;;13.00;57.30;;;;;;5032193;28;20125;-84
2022/06/14 01:23:30;;;;;;;0.85;0.70;;;13.00;57.20;;;;;;5048570;28;20032;-84
2022/06/14 01:26:12;;;;;;;1.08;0.70;;;13.00;57.30;;;;;;5038661;28;20074;-81
2022/06/14 01:28:42;;;;;;;1.07;0.57;;;13.00;58.70;;;;;;5057640;28;20021;-81
2022/06/14 01:31:09;;;;;;;2.53;0.68;;;13.00;57.70;;;;;;5035681;28;20025;-81
2022/06/14 01:33:42;;;;;;;0.60;0.60;;;12.90;57.50;;;;;;5052364;28;20491;-81
2022/06/14 01:36:14;;;;;;;1.17;0.70;;;12.90;58.00;;;;;;5053906;28;20032;-84
2022/06/14 01:38:44;;;;;;;1.00;0.70;;;12.90;58.00;;;;;;5041173;28;20327;-84
2022/06/14 01:41:18;;;;;;;1.07;0.60;;;12.90;58.00;;;;;;5039284;28;20033;-84
2022/06/14 01:43:59;;;;;;;1.00;0.80;;;12.80;57.70;;;;;;5053545;28;20028;-84
2022/06/14 01:46:34;;;;;;;1.58;0.80;;;12.80;59.30;;;;;;5027130;28;20563;-84
2022/06/14 01:52:25;;;;;;;1.50;0.80;;;12.80;59.20;;;;;;5043751;28;20162;-83
2022/06/14 01:55:10;;;;;;;1.10;0.60;;;12.70;57.80;;;;;;5061898;28;20098;-83
2022/06/14 01:57:44;;;;;;;1.05;0.50;;;12.70;58.60;;;;;;5041115;28;20115;-84
2022/06/14 02:00:19;;;;;;;1.58;0.60;;;12.60;58.30;;;;;;5030345;28;20083;-84
2022/06/14 02:06:17;;;;;;;1.05;0.60;;;12.60;60.00;;;;;;5054908;28;20037;-84
2022/06/14 02:08:54;;;;;;;0.80;0.60;;;12.60;60.00;;;;;;5043697;28;20242;-84
2022/06/14 02:11:34;;;;;;;0.90;0.80;;;12.50;58.90;;;;;;5048926;28;20084;-83
2022/06/14 02:14:43;;;;;;;1.10;0.70;;;12.50;59.00;;;;;;5056464;28;20028;-83
2022/06/14 02:17:13;;;;;;;1.00;0.70;;;12.40;59.90;;;;;;5028128;28;20036;-84
2022/06/14 02:19:45;;;;;;;1.08;0.70;;;12.40;58.70;;;;;;5046928;28;20227;-83
2022/06/14 02:22:21;;;;;;;0.73;0.53;;;12.30;58.60;;;;;;5046913;28;20037;-84
2022/06/14 02:24:52;;;;;;;1.35;0.70;;;12.30;58.90;;;;;;5052775;28;20025;-84
2022/06/14 02:27:40;;;;;;;0.85;0.60;;;12.30;58.80;;;;;;5039454;28;20033;-84
2022/06/14 02:30:09;;;;;;;0.60;0.60;;;12.30;60.10;;;;;;5052956;28;20503;-83
2022/06/14 02:32:51;;;;;;;1.30;0.63;;;12.20;58.70;;;;;;5031725;28;20029;-83
2022/06/14 02:35:32;;;;;;;0.70;0.50;;;12.10;59.40;;;;;;5031857;28;20482;-84
2022/06/14 02:38:33;;;;;;;1.38;0.77;;;12.20;59.90;;;;;;5041438;28;20392;-84
2022/06/14 02:41:14;;;;;;;1.00;0.60;;;12.10;60.80;;;;;;5053476;28;20473;-83
2022/06/14 02:43:50;;;;;;;0.60;0.60;;;12.10;59.30;;;;;;5038953;28;20157;-83
2022/06/14 02:46:29;;;;;;;0.98;0.80;;;12.00;59.60;;;;;;5049279;28;20094;-84
2022/06/14 02:49:04;;;;;;;0.97;0.80;;;12.00;60.40;;;;;;5037690;28;20041;-83
2022/06/14 02:51:33;;;;;;;1.05;0.60;;;11.90;59.80;;;;;;5039108;28;20521;-84
2022/06/14 02:54:08;;;;;;;0.70;0.60;;;11.90;59.70;;;;;;5039911;28;20033;-83
2022/06/14 02:56:55;;;;;;;1.13;0.73;;;11.80;60.10;;;;;;5039023;28;20040;-83
2022/06/14 02:59:37;;;;;;;1.00;0.70;;;11.80;61.10;;;;;;5049088;28;20032;-84
2022/06/14 03:02:26;;;;;;;1.00;0.70;;;11.80;60.00;;;;;;5026945;28;20036;-84
2022/06/14 03:05:08;;;;;;;1.48;0.70;;;11.70;61.30;;;;;;5048350;28;20040;-84
2022/06/14 03:07:49;;;;;;;0.85;0.50;;;11.70;61.00;;;;;;5034895;28;20516;-84
2022/06/14 03:10:15;;;;;;;1.00;0.60;;;11.70;61.00;;;;;;5047099;28;20240;-84
2022/06/14 03:12:55;;;;;;;0.60;0.60;;;11.70;59.70;;;;;;5051530;28;20036;-84
2022/06/14 03:15:47;;;;;;;1.35;0.52;;;11.60;60.10;;;;;;5033904;28;20075;-83
2022/06/14 03:18:18;;;;;;;1.02;0.60;;;11.60;61.60;;;;;;5033610;28;20044;-84
2022/06/14 03:20:54;;;;;;;1.52;0.93;;;11.60;60.50;;;;;;5052687;28;20036;-84
2022/06/14 03:23:51;;;;;;;1.10;0.77;;;11.60;61.00;;;;;;5039524;28;20411;-83
2022/06/14 03:26:28;;;;;;;3.47;0.70;;;11.50;62.00;;;;;;5039753;28;20051;-84
2022/06/14 03:29:09;;;;;;;0.77;0.63;;;11.50;60.60;;;;;;5040326;28;20025;-83
2022/06/14 03:31:42;;;;;;;0.90;0.70;;;11.40;61.70;;;;;;5035741;28;20032;-83
2022/06/14 03:34:32;;;;;;;3.75;0.80;;;11.40;60.90;;;;;;5034027;28;20043;-83
2022/06/14 03:36:58;;;;;;;1.45;0.80;;;11.40;60.90;;;;;;5042317;28;20090;-83
2022/06/14 03:39:30;;;;;;;0.73;0.60;;;11.40;60.70;;;;;;5035388;28;20036;-83
2022/06/14 03:41:57;;;;;;;1.40;0.70;;;11.40;61.00;;;;;;5047466;28;20535;-83
2022/06/14 03:44:27;;;;;;;1.45;0.75;;;11.30;60.70;;;;;;5045907;28;20169;-83
2022/06/14 03:47:11;;;;;;;1.30;0.80;;;11.30;61.20;;;;;;5043224;28;20036;-83
2022/06/14 03:49:44;;;;;;;1.70;0.77;;;11.30;62.80;;;;;;5026183;28;20316;-83
2022/06/14 03:52:28;;;;;;;1.27;0.70;;;11.30;61.60;;;;;;5052339;28;20028;-83
2022/06/14 03:55:02;;;;;;;1.15;0.80;;;11.30;62.60;;;;;;5045959;28;20033;-84
2022/06/14 03:57:33;;;;;;;0.80;0.70;;;11.30;62.10;;;;;;5042879;28;20258;-84
2022/06/14 04:00:24;;;;;;;1.35;0.70;;;11.30;61.70;;;;;;5051573;28;20112;-83
2022/06/14 04:02:53;;;;;;;0.82;0.60;;;11.30;62.10;;;;;;5031220;28;20128;-84
2022/06/14 04:05:34;;;;;;;1.30;0.70;;;11.20;61.70;;;;;;5033360;28;20425;-83
2022/06/14 04:08:05;;;;;;;1.00;0.80;;;11.30;62.00;;;;;;5037611;28;20041;-83
2022/06/14 04:10:47;;;;;;;1.25;0.77;;;11.20;61.50;;;;;;5043939;28;20060;-83
2022/06/14 04:13:12;;;;;;;1.25;0.80;;;11.30;62.80;;;;;;5038543;28;20051;-83
2022/06/14 04:15:55;;;;;;;1.17;0.67;;;11.20;61.80;;;;;;5064096;28;20782;-83
2022/06/14 04:18:39;;;;;;;1.27;0.80;;;11.20;63.30;;;;;;5021682;28;20507;-83
2022/06/14 04:21:12;;;;;;;1.60;0.80;;;11.20;63.20;;;;;;5029888;28;20349;-83
2022/06/14 04:23:53;;;;;;;1.23;0.80;;;11.20;62.00;;;;;;5037003;28;20036;-83
2022/06/14 04:26:44;;;;;;;1.17;0.73;;;11.30;63.30;;;;;;5052869;28;20112;-83
2022/06/14 04:29:21;;;;;;;1.35;0.70;;;11.30;64.00;;;;;;5038037;28;20253;-83
2022/06/14 04:31:54;;;;;;;1.42;0.90;;;11.30;62.30;;;;;;5033386;28;20333;-83
2022/06/14 04:34:48;;;;;;;1.10;0.80;;;11.30;62.80;;;;;;5037987;28;20037;-84
2022/06/14 04:37:32;;;;;;;1.27;0.77;;;11.40;63.90;;;;;;5030127;28;20525;-83
2022/06/14 04:40:00;;;;;;;1.17;0.90;;;11.40;63.10;;;;;;5033370;28;20039;-84
2022/06/14 04:42:45;;;;;;;1.73;0.85;;;11.50;62.70;;;;;;5034904;28;20037;-83
2022/06/14 04:45:48;;;;;;;1.77;0.77;;;11.50;63.80;;;;;;5057650;28;20136;-84
2022/06/14 04:48:21;;;;;;;1.05;0.75;;;11.50;64.60;;;;;;5036059;28;20044;-84
2022/06/14 04:51:15;;;;;;;1.63;0.85;;;11.60;63.60;;;;;;5045039;28;20152;-84
2022/06/14 04:54:07;;;;;;;1.23;0.80;;;11.60;64.10;;;;;;5021564;28;20041;-84
2022/06/14 04:56:51;;;;;;;1.73;1.02;;;11.60;65.00;;;;;;5043929;28;20037;-84
2022/06/14 04:59:23;;;;;;;1.10;0.90;;;11.70;64.90;;;;;;5042222;28;20040;-84
2022/06/14 05:02:11;;;;;;;1.25;0.93;;;11.70;63.80;;;;;;5047961;28;20276;-84
2022/06/14 05:05:14;;;;;;;1.88;0.90;;;11.80;65.20;;;;;;5034759;28;20055;-84
2022/06/14 05:07:58;;;;;;;1.40;0.73;;;11.90;65.90;;;;;;5033995;28;20036;-84
2022/06/14 05:10:48;;;;;;;1.60;0.90;;;11.90;64.60;;;;;;5038691;28;20036;-84
2022/06/14 05:13:37;;;;;;;2.00;0.95;;;12.00;65.60;;;;;;5040985;28;20056;-84
2022/06/14 05:16:12;;;;;;;1.50;0.90;;;12.10;65.50;;;;;;5047127;28;20719;-84
2022/06/14 05:18:59;;;;;;;1.27;0.82;;;12.10;64.40;;;;;;5038862;28;20571;-83
2022/06/14 05:21:39;;;;;;;2.50;0.90;;;12.20;64.50;;;;;;5042412;28;20025;-84
2022/06/14 05:24:06;;;;;;;2.08;1.10;;;12.30;64.80;;;;;;5035174;28;24878;-83
2022/06/14 05:26:50;;;;;;;1.95;1.20;;;12.40;64.30;;;;;;5038069;28;20078;-83
2022/06/14 05:29:27;;;;;;;1.90;1.05;;;12.40;65.40;;;;;;5042032;28;20504;-83
2022/06/14 05:32:09;;;;;;;2.28;1.15;;;12.50;64.80;;;;;;5051470;28;20469;-84
2022/06/14 05:34:46;;;;;;;2.10;1.20;;;12.60;65.60;;;;;;5036004;28;20131;-83
2022/06/14 05:37:44;;;;;;;2.10;1.30;;;12.70;65.00;;;;;;5025247;28;20161;-83
2022/06/14 05:40:21;;;;;;;1.92;1.42;;;12.80;66.40;;;;;;5020986;28;20443;-83
2022/06/14 05:43:12;;;;;;;2.67;1.30;;;12.90;65.20;;;;;;5043891;28;20376;-84
2022/06/14 05:45:49;;;;;;;2.63;1.30;;;13.00;65.40;;;;;;5046877;28;20597;-84
2022/06/14 05:48:22;;;;;;;2.57;1.20;;;13.00;65.10;;;;;;5049079;28;20248;-84
2022/06/14 05:50:50;;;;;;;2.42;1.35;;;13.20;65.50;;;;;;5036766;28;20036;-83
2022/06/14 05:53:25;;;;;;;2.75;1.15;;;13.30;65.30;;;;;;5017129;28;20591;-84
2022/06/14 05:55:56;;;;;;;2.75;1.45;;;13.40;65.70;;;;;;5036769;28;20487;-83
2022/06/14 05:58:36;;;;;;;3.58;1.30;;;13.50;65.70;;;;;;5037855;28;20313;-84
2022/06/14 06:01:20;;;;;;;4.10;1.30;;;13.60;65.90;;;;;;5040021;28;20048;-84
2022/06/14 06:03:46;;;;;;;4.25;1.58;;;13.70;65.50;;;;;;5051230;28;20420;-83
2022/06/14 06:06:44;;;;;;;3.20;1.40;;;13.80;65.20;;;;;;5040747;28;20037;-84
2022/06/14 06:09:21;;;;;;;2.53;1.30;;;13.90;67.10;;;;;;5032744;28;20090;-84
2022/06/14 06:12:05;;;;;;;2.15;1.00;;;14.00;66.30;;;;;;5016447;28;20788;-83
2022/06/14 06:14:36;;;;;;;2.35;0.90;;;14.10;65.80;;;;;;5048055;28;20436;-84
2022/06/14 06:17:36;;;;;;;3.47;1.00;;;14.20;65.70;;;;;;5040920;28;20483;-83
2022/06/14 06:20:09;;;;;;;3.42;1.00;;;14.30;66.70;;;;;;5037941;28;20349;-83
2022/06/14 06:23:04;;;;;;;3.07;0.90;;;14.50;65.60;;;;;;5031448;28;20150;-84
2022/06/14 06:25:35;;;;;;;3.50;1.02;;;14.60;66.70;;;;;;5035865;28;20589;-83
2022/06/14 06:28:08;;;;;;;1.60;0.98;;;14.70;65.70;;;;;;5036463;28;20120;-83
2022/06/14 06:30:56;;;;;;;1.92;0.90;;;14.80;66.30;;;;;;5042430;28;20395;-84
2022/06/14 06:33:26;;;;;;;2.28;1.10;;;14.90;67.40;;;;;;5041891;28;20482;-84
2022/06/14 06:36:31;;;;;;;1.87;1.00;;;15.00;65.90;;;;;;5059016;28;20079;-84
2022/06/14 06:39:08;;;;;;;2.83;1.00;;;15.20;67.00;;;;;;5036881;28;20106;-85
2022/06/14 06:41:51;;;;;;;2.67;1.10;;;15.20;65.90;;;;;;5047601;28;20236;-84
2022/06/14 06:44:16;;;;;;;4.68;0.98;;;15.40;65.50;;;;;;5017133;28;20374;-84
2022/06/14 06:46:49;;;;;;;1.83;0.83;;;15.50;65.00;;;;;;5043796;28;20260;-84
2022/06/14 06:49:18;;;;;;;1.42;0.93;;;15.60;65.30;;;;;;5041062;28;20021;-83
2022/06/14 06:51:48;;;;;;;1.52;1.00;;;15.70;65.10;;;;;;5048149;28;20227;-83
2022/06/14 06:54:30;;;;;;;3.85;1.20;;;15.80;65.10;;;;;;5038552;28;20381;-84
2022/06/14 06:56:59;;;;;;;2.10;1.00;;;15.90;65.40;;;;;;5046887;28;20029;-84
2022/06/14 06:59:46;;;;;;;2.40;1.00;;;16.00;64.80;;;;;;5026577;28;20419;-84
2022/06/14 07:02:22;;;;;;;3.33;0.93;;;16.10;65.30;;;;;;5045686;28;20465;-84
2022/06/14 07:05:05;;;;;;;2.60;1.10;;;16.20;64.90;;;;;;5040490;28;20277;-84
2022/06/14 07:07:42;;;;;;;2.65;0.70;;;16.30;64.40;;;;;;5046622;28;20037;-84
2022/06/14 07:10:13;;;;;;;0.83;0.73;;;16.40;64.10;;;;;;5034495;28;20094;-84
2022/06/14 07:12:54;;;;;;;1.23;0.88;;;16.50;63.90;;;;;;5031268;28;20257;-84
2022/06/14 07:15:22;;;;;;;2.63;0.77;;;16.70;63.70;;;;;;5025157;28;20044;-84
2022/06/14 07:18:03;;;;;;;2.28;0.77;;;16.80;64.20;;;;;;5049123;28;20249;-84
2022/06/14 07:20:51;;;;;;;1.48;0.73;;;16.80;63.40;;;;;;5040533;28;20083;-84
2022/06/14 07:23:25;;;;;;;1.47;0.80;;;17.00;62.80;;;;;;5041232;28;20055;-84
2022/06/14 07:26:29;;;;;;;1.50;0.80;;;17.10;63.40;;;;;;5030302;28;20605;-84
2022/06/14 07:29:02;;;;;;;2.28;0.70;;;17.20;63.30;;;;;;5011958;28;20039;-84
2022/06/14 07:31:53;;;;;;;2.30;0.90;;;17.30;62.90;;;;;;5019334;28;20090;-84
2022/06/14 07:34:19;;;;;;;3.10;0.95;;;17.40;62.50;;;;;;5035616;28;20629;-84
2022/06/14 07:37:01;;;;;;;1.67;0.73;;;17.60;62.80;;;;;;5042032;28;20020;-84
2022/06/14 07:39:35;;;;;;;1.60;0.70;;;17.70;62.70;;;;;;5032058;28;20028;-84
2022/06/14 07:42:24;;;;;;;2.85;0.80;;;17.90;63.40;;;;;;5032767;28;20041;-84
2022/06/14 07:44:52;;;;;;;2.33;0.95;;;18.10;64.90;;;;;;5025789;28;20050;-84
2022/06/14 07:47:36;;;;;;;1.38;0.80;;;18.50;65.60;;;;;;5041424;28;20045;-84
2022/06/14 07:50:08;;;;;;;1.87;0.90;;;19.00;65.00;;;;;;5051346;28;20043;-84
2022/06/14 07:52:42;;;;;;;2.78;0.90;;;19.50;66.40;;;;;;5041291;28;20274;-84
2022/06/14 07:56:01;;;;;;;2.33;0.90;;;20.10;66.10;;;;;;5042431;28;20164;-82
2022/06/14 07:58:40;;;;;;;3.05;1.00;;;20.80;64.00;;;;;;5028692;28;20467;-82
2022/06/14 08:01:16;;;;;;;1.25;0.80;;;21.40;64.60;;;;;;5034630;28;20186;-82
2022/06/14 08:04:05;;;;;;;1.37;0.83;;;22.00;65.00;;;;;;5038530;28;20366;-82
2022/06/14 08:06:53;;;;;;;1.67;1.00;;;22.60;64.50;;;;;;5040149;28;20721;-82
2022/06/14 08:09:40;;;;;;;2.50;0.90;;;23.20;62.20;;;;;;5037487;28;20488;-82
2022/06/14 08:12:35;;;;;;;1.67;0.98;;;23.80;61.10;;;;;;5032650;28;20401;-82
2022/06/14 08:15:22;;;;;;;1.63;0.90;;;24.30;59.30;;;;;;5048845;28;20032;-82
2022/06/14 08:18:16;;;;;;;2.50;0.83;;;24.70;58.30;;;;;;5031498;28;20192;-82
2022/06/14 08:21:06;;;;;;;2.50;1.10;;;25.20;57.60;;;;;;5052931;28;20731;-82
2022/06/14 08:23:44;;;;;;;1.70;0.85;;;25.70;57.00;;;;;;5037765;28;20646;-82
2022/06/14 08:26:19;;;;;;;2.35;0.95;;;26.10;59.30;;;;;;5039948;28;20041;-82
2022/06/14 08:28:54;;;;;;;1.60;0.90;;;26.50;56.60;;;;;;5035175;28;20061;-82
2022/06/14 08:31:36;;;;;;;4.30;1.10;;;26.80;54.90;;;;;;5042407;28;20481;-82
2022/06/14 08:34:05;;;;;;;1.38;1.00;;;27.20;54.20;;;;;;5063167;28;20033;-82
2022/06/14 08:36:58;;;;;;;2.22;1.10;;;27.40;55.20;;;;;;5046024;28;20044;-83
2022/06/14 08:39:43;;;;;;;1.80;1.08;;;27.60;52.40;;;;;;5027190;28;20082;-82
2022/06/14 08:42:08;;;;;;;1.77;1.05;;;27.80;51.50;;;;;;5051890;28;20033;-82
2022/06/14 08:45:03;;;;;;;2.43;1.10;;;28.00;53.90;;;;;;5031150;28;20288;-82
2022/06/14 08:48:06;;;;;;;2.25;1.10;;;28.30;51.80;;;;;;5016245;28;20041;-82
2022/06/14 08:50:57;;;;;;;1.58;1.08;;;28.50;50.40;;;;;;5041194;28;20043;-82
2022/06/14 08:53:51;;;;;;;2.07;1.00;;;28.80;50.60;;;;;;5054249;28;20492;-82
2022/06/14 08:56:43;;;;;;;1.55;0.90;;;29.00;49.30;;;;;;5031102;28;20547;-82
2022/06/14 08:59:51;;;;;;;2.65;1.17;;;29.20;48.90;;;;;;5039071;28;20161;-83
2022/06/14 09:02:54;;;;;;;2.28;1.00;;;29.40;48.60;;;;;;5039445;28;20036;-83
2022/06/14 09:05:49;;;;;;;1.45;1.00;;;29.70;47.80;;;;;;5041500;28;20059;-82
2022/06/14 09:09:00;;;;;;;2.93;1.10;;;30.00;48.90;;;;;;5022274;28;20040;-82
2022/06/14 09:12:01;;;;;;;2.15;1.08;;;30.20;46.40;;;;;;5027984;28;20273;-83
2022/06/14 09:14:51;;;;;;;2.22;1.00;;;30.30;46.40;;;;;;5031140;28;20037;-82
2022/06/14 09:17:37;;;;;;;2.05;1.00;;;30.50;47.10;;;;;;5037192;28;20492;-82
2022/06/14 09:20:29;;;;;;;1.95;1.02;;;30.60;47.40;;;;;;5019687;28;20087;-82
2022/06/14 09:23:17;;;;;;;1.37;1.00;;;30.70;44.50;;;;;;5049773;28;20091;-83
2022/06/14 09:26:14;;;;;;;3.22;1.30;;;30.80;46.50;;;;;;5030407;28;20037;-83
2022/06/14 09:28:48;;;;;;;1.98;1.00;;;31.00;44.00;;;;;;5035947;28;20063;-83
2022/06/14 09:31:26;;;;;;;2.95;1.10;;;31.20;45.70;;;;;;5039187;28;20237;-83
2022/06/14 09:34:08;;;;;;;1.80;1.17;;;31.30;43.80;;;;;;5035411;28;20039;-82
2022/06/14 09:36:33;;;;;;;2.00;1.00;;;31.50;43.60;;;;;;5055154;28;20315;-83
2022/06/14 09:39:56;;;;;;;3.35;1.38;;;31.60;44.30;;;;;;5042748;28;20114;-83
2022/06/14 09:42:33;;;;;;;1.98;1.20;;;31.80;42.10;;;;;;5032782;28;20071;-82
2022/06/14 09:45:04;;;;;;;3.07;1.33;;;31.90;42.10;;;;;;5034917;28;20055;-82
2022/06/14 09:48:00;;;;;;;1.77;1.30;;;32.10;41.60;;;;;;5053080;28;20408;-82
2022/06/14 09:50:31;;;;;;;1.92;1.00;;;32.20;40.10;;;;;;5047226;28;20746;-83
2022/06/14 09:53:38;;;;;;;2.00;1.13;;;32.20;41.10;;;;;;5048348;28;20048;-83
2022/06/14 09:56:26;;;;;;;2.38;1.17;;;32.30;40.20;;;;;;5032857;28;20090;-83
2022/06/14 09:59:15;;;;;;;2.10;1.10;;;32.30;39.30;;;;;;5043296;28;20441;-82
2022/06/14 10:01:47;;;;;;;1.40;1.10;;;32.50;39.20;;;;;;5043519;28;20029;-83
2022/06/14 10:04:59;;;;;;;2.55;1.40;;;32.70;40.70;;;;;;5032054;28;20272;-82
2022/06/14 10:07:27;;;;;;;2.35;1.20;;;32.80;39.00;;;;;;5067582;28;20102;-83
2022/06/14 10:09:59;;;;;;;2.40;1.10;;;32.90;40.30;;;;;;5065491;28;20112;-83
2022/06/14 10:12:34;;;;;;;1.83;1.10;;;33.00;39.00;;;;;;5058281;28;20035;-83
2022/06/14 10:15:13;;;;;;;1.38;1.00;;;33.10;38.80;;;;;;5047008;28;20082;-83
2022/06/14 10:17:49;;;;;;;3.08;1.30;;;33.20;38.10;;;;;;5044152;28;20220;-83
2022/06/14 10:20:30;;;;;;;2.13;1.23;;;33.20;36.60;;;;;;5033098;28;20356;-82
2022/06/14 10:23:21;;;;;;;1.85;1.20;;;33.20;36.50;;;;;;5063800;28;20048;-83
2022/06/14 10:29:07;;;;;;;1.63;1.10;;;33.20;37.70;;;;;;5044547;28;20638;-82
2022/06/14 10:31:41;;;;;;;2.33;1.00;;;33.30;35.90;;;;;;5033759;28;20029;-82
2022/06/14 10:34:36;;;;;;;1.77;1.23;;;33.40;37.50;;;;;;5049002;28;20404;-83
2022/06/14 10:37:14;;;;;;;2.17;1.20;;;33.40;32.70;;;;;;5043566;28;20132;-83
2022/06/14 10:39:51;;;;;;;1.97;1.23;;;33.50;35.40;;;;;;5041607;28;20045;-82
2022/06/14 10:42:27;;;;;;;1.85;1.30;;;33.50;35.40;;;;;;5064594;28;20036;-85
2022/06/14 10:44:58;;;;;;;1.60;1.13;;;33.50;36.30;;;;;;5037764;28;20029;-83
2022/06/14 10:47:54;;;;;;;2.45;1.20;;;33.50;35.40;;;;;;5039115;28;20412;-83
2022/06/14 10:50:23;;;;;;;1.90;1.27;;;33.50;35.60;;;;;;5038083;28;20553;-84
2022/06/14 10:52:57;;;;;;;1.97;1.30;;;33.50;36.00;;;;;;5039900;28;20738;-83
2022/06/14 10:55:40;;;;;;;2.50;1.35;;;33.60;35.20;;;;;;5037819;28;20040;-83
2022/06/14 10:58:31;;;;;;;2.38;1.00;;;33.60;34.10;;;;;;5053250;28;20025;-83
2022/06/14 11:01:34;;;;;;;1.60;1.10;;;33.70;34.40;;;;;;5051816;28;20041;-83
2022/06/14 11:04:17;;;;;;;2.53;1.20;;;33.80;34.70;;;;;;5052094;28;20041;-84
2022/06/14 11:06:49;;;;;;;1.43;1.30;;;33.90;34.00;;;;;;5029854;28;20103;-83
2022/06/14 11:09:26;;;;;;;2.38;1.40;;;33.90;34.20;;;;;;5048699;28;20440;-84
2022/06/14 11:12:25;;;;;;;2.85;1.58;;;34.00;33.70;;;;;;5053678;28;20036;-83
2022/06/14 11:15:19;;;;;;;4.00;1.30;;;34.00;32.70;;;;;;5036790;28;20037;-83
2022/06/14 11:17:56;;;;;;;2.13;1.00;;;34.00;33.00;;;;;;5042037;28;20086;-83
2022/06/14 11:20:52;;;;;;;5.20;1.20;;;34.10;34.70;;;;;;5048035;28;20540;-83
2022/06/14 11:23:49;;;;;;;1.75;1.00;;;34.20;33.70;;;;;;5019237;28;20071;-83
2022/06/14 11:26:19;;;;;;;1.95;1.00;;;34.20;33.20;;;;;;5043376;28;20192;-83
2022/06/14 11:29:15;;;;;;;2.40;1.20;;;34.30;33.30;;;;;;5048046;28;20037;-83
2022/06/14 11:31:52;;;;;;;1.45;1.10;;;34.40;33.10;;;;;;5037316;28;20032;-83
2022/06/14 11:34:45;;;;;;;1.33;1.00;;;34.60;33.20;;;;;;5032757;28;20354;-83
2022/06/14 11:37:38;;;;;;;2.05;1.10;;;34.70;32.70;;;;;;5025012;28;20036;-83
2022/06/14 11:40:24;;;;;;;1.75;1.20;;;34.80;31.80;;;;;;5027450;28;20079;-83
2022/06/14 11:43:27;;;;;;;1.77;1.17;;;34.80;32.10;;;;;;5038694;28;20123;-83
2022/06/14 11:46:04;;;;;;;1.70;1.00;;;34.90;32.10;;;;;;5045225;28;20040;-84
2022/06/14 11:49:02;;;;;;;1.97;1.00;;;34.90;31.70;;;;;;5033703;28;21054;-84
2022/06/14 11:51:57;;;;;;;1.48;1.10;;;34.90;30.50;;;;;;5039638;28;20127;-84
2022/06/14 11:54:31;;;;;;;1.40;1.13;;;34.90;31.20;;;;;;5040907;28;20696;-84
2022/06/14 11:57:12;;;;;;;1.58;1.00;;;34.80;31.10;;;;;;5058150;28;20480;-84
2022/06/14 12:00:01;;;;;;;1.88;1.20;;;34.80;30.00;;;;;;5058549;28;20355;-83
2022/06/14 12:02:26;;;;;;;1.90;1.20;;;34.80;29.80;;;;;;5058312;28;20056;-83
2022/06/14 12:05:05;;;;;;;1.73;1.10;;;34.80;31.50;;;;;;5037464;28;20033;-83
2022/06/14 12:07:38;;;;;;;1.42;0.90;;;34.90;31.30;;;;;;5046911;28;20165;-83
2022/06/14 12:10:10;;;;;;;1.67;1.00;;;35.00;29.90;;;;;;5032239;28;20052;-84
2022/06/14 12:12:57;;;;;;;2.33;1.40;;;35.10;30.30;;;;;;5059415;28;20029;-84
2022/06/14 12:15:33;;;;;;;1.92;1.20;;;35.20;29.80;;;;;;5036736;28;20032;-84
2022/06/14 12:18:03;;;;;;;1.30;1.10;;;35.20;29.50;;;;;;5047324;28;20041;-83
2022/06/14 12:20:35;;;;;;;1.77;1.15;;;35.20;30.20;;;;;;5034496;28;20044;-83
2022/06/14 12:23:22;;;;;;;1.45;1.20;;;35.30;30.00;;;;;;5038240;28;20033;-83
2022/06/14 12:28:57;;;;;;;1.50;1.25;;;35.40;29.50;;;;;;5052434;28;20352;-84
2022/06/14 12:31:35;;;;;;;1.00;0.90;;;35.30;29.80;;;;;;5035498;28;20701;-83
2022/06/14 12:34:09;;;;;;;1.70;0.95;;;35.20;28.60;;;;;;5055024;28;20090;-84
2022/06/14 12:37:01;;;;;;;1.75;1.23;;;35.20;29.10;;;;;;5040026;28;20040;-84
2022/06/14 12:39:32;;;;;;;2.10;1.43;;;35.20;29.20;;;;;;5013710;28;20157;-84
2022/06/14 12:42:03;;;;;;;1.92;1.30;;;35.20;29.30;;;;;;5046656;28;20029;-84
2022/06/14 12:44:55;;;;;;;2.50;1.02;;;35.20;29.40;;;;;;5040610;28;21110;-83
2022/06/14 12:47:37;;;;;;;1.15;1.05;;;35.20;29.10;;;;;;5057315;28;20305;-84
2022/06/14 12:50:13;;;;;;;1.92;1.15;;;35.30;29.10;;;;;;5060614;28;20028;-84
2022/06/14 12:52:45;;;;;;;1.40;1.30;;;35.40;29.50;;;;;;5034209;28;20060;-84
2022/06/14 12:55:26;;;;;;;1.52;0.90;;;35.50;29.40;;;;;;5024225;28;20332;-83
2022/06/14 12:58:18;;;;;;;2.33;1.20;;;35.70;28.70;;;;;;5059019;28;20297;-83
2022/06/14 13:00:58;;;;;;;2.10;1.00;;;35.80;27.70;;;;;;5035737;28;20028;-84
2022/06/14 13:03:35;;;;;;;1.80;1.30;;;35.80;28.10;;;;;;5044219;28;20303;-83
2022/06/14 13:06:11;;;;;;;1.50;1.00;;;35.80;27.80;;;;;;5039769;28;20040;-83
2022/06/14 13:08:59;;;;;;;1.45;1.10;;;35.80;27.90;;;;;;5044318;28;20064;-85
2022/06/14 13:11:41;;;;;;;1.50;1.00;;;35.70;28.10;;;;;;5025228;28;20841;-84
2022/06/14 13:14:28;;;;;;;1.33;1.17;;;35.70;28.60;;;;;;5057394;28;20568;-83
2022/06/14 13:17:22;;;;;;;1.30;1.00;;;35.50;27.90;;;;;;5043461;28;20032;-84
2022/06/14 13:19:55;;;;;;;1.33;1.10;;;35.40;28.00;;;;;;5043559;28;20057;-83
2022/06/14 13:22:32;;;;;;;1.30;1.10;;;35.30;28.40;;;;;;5037812;28;20059;-84
2022/06/14 13:25:26;;;;;;;1.98;1.13;;;35.20;28.60;;;;;;5044492;28;21929;-84
2022/06/14 13:28:09;;;;;;;1.67;1.13;;;35.10;27.90;;;;;;5030137;28;20509;-84
2022/06/14 13:30:45;;;;;;;1.10;1.00;;;35.00;27.90;;;;;;5042438;28;20033;-83
2022/06/14 13:33:23;;;;;;;1.77;1.03;;;34.90;27.90;;;;;;5050283;28;20919;-84
2022/06/14 13:36:29;;;;;;;2.00;1.10;;;34.70;28.10;;;;;;5056484;28;20032;-83
2022/06/14 13:39:33;;;;;;;1.83;1.08;;;34.70;28.10;;;;;;5019035;28;20028;-84
2022/06/14 13:42:08;;;;;;;1.60;1.00;;;34.60;27.90;;;;;;5025074;28;20411;-84
2022/06/14 13:44:39;;;;;;;2.95;1.10;;;34.50;27.70;;;;;;5048811;28;20029;-84
2022/06/14 13:47:39;;;;;;;3.13;1.10;;;34.40;27.70;;;;;;5041649;28;20593;-83
2022/06/14 13:50:18;;;;;;;1.70;1.00;;;34.30;28.00;;;;;;5048706;28;20055;-84
2022/06/14 13:53:10;;;;;;;2.35;1.00;;;34.20;28.20;;;;;;5053788;28;20032;-83
2022/06/14 13:55:46;;;;;;;1.42;1.20;;;34.20;28.00;;;;;;5038601;28;20123;-83
2022/06/14 13:58:22;;;;;;;2.33;1.02;;;34.20;28.10;;;;;;5035307;28;20028;-83
2022/06/14 14:01:14;;;;;;;2.77;1.20;;;34.10;27.70;;;;;;5050117;28;20476;-83
2022/06/14 14:03:50;;;;;;;1.27;0.93;;;33.90;27.60;;;;;;5041151;28;20044;-84
2022/06/14 14:06:30;;;;;;;1.77;1.00;;;33.70;27.90;;;;;;5046801;28;20562;-84
2022/06/14 14:09:13;;;;;;;1.45;1.10;;;33.60;27.90;;;;;;5037741;28;20040;-84
2022/06/14 14:12:01;;;;;;;3.28;0.90;;;33.40;28.00;;;;;;5046754;28;20033;-83